createdAt,value
2017-12-05T00:01:46.030Z,13.70
2017-12-05T00:04:14.274Z,16.40
2017-12-05T00:06:42.522Z,15.10
2017-12-05T00:09:11.159Z,12.43
2017-12-05T00:11:39.409Z,11.63
2017-12-05T00:14:07.650Z,10.90
2017-12-05T00:16:36.057Z,16.80
2017-12-05T00:19:05.077Z,15.67
2017-12-05T00:21:33.325Z,18.40
2017-12-05T00:24:02.363Z,12.53
2017-12-05T00:26:30.614Z,15.07
2017-12-05T00:28:58.846Z,15.60
2017-12-05T00:31:27.150Z,15.07
2017-12-05T00:33:56.156Z,13.20
2017-12-05T00:36:24.446Z,13.70
2017-12-05T00:38:52.950Z,13.13
2017-12-05T00:41:21.210Z,15.33
2017-12-05T00:43:49.454Z,14.33
2017-12-05T00:46:17.730Z,12.13
2017-12-05T00:48:46.738Z,14.83
2017-12-05T00:51:15.758Z,14.30
2017-12-05T00:53:44.069Z,16.90
2017-12-05T00:56:12.274Z,13.47
2017-12-05T00:58:41.286Z,13.37
2017-12-05T01:01:09.915Z,15.80
2017-12-05T01:03:38.157Z,16.43
2017-12-05T01:06:06.406Z,10.30
2017-12-05T01:08:34.689Z,14.40
2017-12-05T01:11:03.885Z,12.30
2017-12-05T01:13:32.130Z,12.00
2017-12-05T01:16:00.438Z,12.40
2017-12-05T01:18:29.453Z,15.03
2017-12-05T01:20:57.701Z,13.40
2017-12-05T01:23:26.021Z,11.27
2017-12-05T01:25:54.266Z,17.17
2017-12-05T01:28:23.326Z,14.63
2017-12-05T01:30:51.574Z,14.03
2017-12-05T01:33:19.819Z,18.30
2017-12-05T01:35:48.826Z,17.47
2017-12-05T01:38:17.109Z,19.87
2017-12-05T01:40:45.360Z,13.43
2017-12-05T01:43:13.602Z,17.23
2017-12-05T01:45:42.258Z,15.23
2017-12-05T01:48:10.501Z,16.23
2017-12-05T01:50:38.746Z,19.57
2017-12-05T01:53:07.019Z,14.60
2017-12-05T01:55:35.267Z,15.93
2017-12-05T01:58:03.515Z,19.10
2017-12-05T02:00:32.538Z,15.67
2017-12-05T02:03:00.802Z,18.50
2017-12-05T02:05:29.049Z,15.07
2017-12-05T02:07:58.186Z,17.23
2017-12-05T02:10:26.430Z,18.00
2017-12-05T02:12:55.005Z,16.13
2017-12-05T02:15:24.047Z,17.40
2017-12-05T02:17:52.309Z,14.70
2017-12-05T02:20:20.546Z,15.37
2017-12-05T02:22:48.809Z,16.70
2017-12-05T02:25:17.059Z,16.33
2017-12-05T02:27:46.065Z,17.40
2017-12-05T02:30:14.626Z,16.10
2017-12-05T02:32:42.936Z,14.33
2017-12-05T02:35:11.177Z,16.73
2017-12-05T02:37:39.446Z,16.37
2017-12-05T02:40:07.695Z,15.17
2017-12-05T02:42:35.938Z,15.73
2017-12-05T02:45:04.214Z,15.73
2017-12-05T02:47:32.464Z,12.60
2017-12-05T02:50:00.710Z,16.37
2017-12-05T02:52:29.429Z,15.27
2017-12-05T02:54:57.687Z,13.27
2017-12-05T02:57:25.929Z,17.00
2017-12-05T02:59:54.961Z,15.07
2017-12-05T03:02:23.217Z,16.40
2017-12-05T03:04:52.225Z,15.60
2017-12-05T03:07:20.499Z,12.30
2017-12-05T03:09:48.745Z,16.20
2017-12-05T03:12:16.989Z,11.70
2017-12-05T03:14:45.872Z,16.40
2017-12-05T03:17:14.114Z,15.30
2017-12-05T03:19:42.362Z,13.47
2017-12-05T03:22:10.638Z,15.37
2017-12-05T03:24:38.882Z,11.80
2017-12-05T03:27:07.128Z,13.30
2017-12-05T03:29:35.403Z,13.40
2017-12-05T03:32:03.654Z,18.53
2017-12-05T03:34:31.910Z,14.97
2017-12-05T03:37:00.563Z,15.43
2017-12-05T03:39:28.812Z,12.90
2017-12-05T03:41:57.062Z,13.73
2017-12-05T03:44:25.342Z,13.67
2017-12-05T03:46:54.372Z,18.60
2017-12-05T03:49:22.617Z,14.07
2017-12-05T03:51:50.894Z,15.17
2017-12-05T03:54:19.910Z,12.63
2017-12-05T03:56:48.159Z,13.00
2017-12-05T03:59:17.300Z,16.83
2017-12-05T04:01:45.547Z,17.43
2017-12-05T04:04:13.800Z,16.23
2017-12-05T04:06:42.100Z,16.43
2017-12-05T04:09:10.325Z,18.27
2017-12-05T04:11:38.714Z,19.50
2017-12-05T04:14:06.981Z,17.27
2017-12-05T04:16:35.506Z,15.77
2017-12-05T04:19:04.526Z,18.37
2017-12-05T04:21:33.065Z,19.00
2017-12-05T04:24:01.314Z,19.27
2017-12-05T04:26:29.549Z,18.60
2017-12-05T04:28:57.813Z,17.97
2017-12-05T04:31:26.830Z,20.43
2017-12-05T04:33:55.082Z,18.83
2017-12-05T04:36:24.422Z,19.07
2017-12-05T04:38:52.662Z,22.43
2017-12-05T04:41:20.905Z,18.63
2017-12-05T04:43:49.346Z,16.50
2017-12-05T04:46:17.594Z,18.23
2017-12-05T04:48:46.602Z,18.50
2017-12-05T04:51:14.878Z,18.93
2017-12-05T04:53:43.123Z,19.00
2017-12-05T04:56:11.374Z,20.87
2017-12-05T04:58:39.638Z,18.20
2017-12-05T05:01:07.887Z,21.70
2017-12-05T05:03:36.134Z,18.37
2017-12-05T05:06:04.974Z,19.30
2017-12-05T05:08:33.222Z,15.90
2017-12-05T05:11:01.469Z,19.67
2017-12-05T05:13:29.737Z,19.50
2017-12-05T05:15:57.983Z,18.67
2017-12-05T05:18:26.832Z,19.00
2017-12-05T05:20:56.778Z,23.57
2017-12-05T05:23:25.022Z,21.23
2017-12-05T05:25:54.030Z,23.30
2017-12-05T05:28:22.477Z,20.00
2017-12-05T05:30:50.733Z,19.60
2017-12-05T05:33:18.974Z,18.27
2017-12-05T05:35:47.245Z,15.37
2017-12-05T05:38:15.562Z,21.93
2017-12-05T05:40:43.845Z,20.70
2017-12-05T05:43:12.102Z,22.93
2017-12-05T05:45:40.362Z,21.47
2017-12-05T05:48:08.601Z,23.20
2017-12-05T05:50:37.773Z,22.60
2017-12-05T05:53:06.026Z,22.60
2017-12-05T05:55:34.275Z,24.03
2017-12-05T05:58:02.547Z,24.83
2017-12-05T06:00:30.944Z,22.83
2017-12-05T06:02:59.173Z,23.33
2017-12-05T06:05:27.447Z,25.60
2017-12-05T06:07:55.696Z,24.80
2017-12-05T06:10:23.943Z,22.77
2017-12-05T06:12:52.754Z,23.63
2017-12-05T06:15:21.012Z,22.90
2017-12-05T06:17:49.270Z,22.10
2017-12-05T06:20:17.874Z,21.60
2017-12-05T06:22:46.150Z,23.90
2017-12-05T06:25:14.565Z,24.40
2017-12-05T06:27:42.899Z,21.50
2017-12-05T06:30:11.125Z,22.53
2017-12-05T06:32:39.378Z,22.60
2017-12-05T06:35:08.162Z,21.73
2017-12-05T06:37:36.409Z,22.50
2017-12-05T06:40:04.657Z,19.40
2017-12-05T06:42:32.933Z,22.27
2017-12-05T06:45:01.187Z,20.30
2017-12-05T06:47:29.463Z,18.50
2017-12-05T06:49:57.734Z,18.73
2017-12-05T06:52:25.993Z,18.57
2017-12-05T06:54:54.254Z,18.80
2017-12-05T06:57:22.769Z,21.13
2017-12-05T06:59:51.018Z,21.03
2017-12-05T07:02:19.266Z,19.43
2017-12-05T07:04:47.537Z,21.97
2017-12-05T07:07:15.789Z,16.67
2017-12-05T07:09:44.037Z,21.00
2017-12-05T07:12:12.306Z,19.70
2017-12-05T07:14:40.550Z,19.23
2017-12-05T07:17:08.798Z,14.90
2017-12-05T07:19:37.370Z,18.90
2017-12-05T07:22:05.790Z,17.40
2017-12-05T07:24:34.803Z,19.60
2017-12-05T07:27:03.838Z,20.00
2017-12-05T07:29:32.082Z,19.60
2017-12-05T07:32:00.545Z,18.37
2017-12-05T07:34:29.571Z,13.83
2017-12-05T07:36:57.813Z,16.10
2017-12-05T07:39:26.054Z,16.70
2017-12-05T07:41:54.709Z,12.83
2017-12-05T07:44:22.950Z,20.90
2017-12-05T07:46:51.202Z,16.97
2017-12-05T07:49:19.470Z,17.60
2017-12-05T07:51:47.718Z,15.63
2017-12-05T07:54:15.978Z,17.90
2017-12-05T07:56:44.256Z,18.60
2017-12-05T07:59:12.497Z,20.43
2017-12-05T08:01:41.513Z,21.37
2017-12-05T08:04:10.434Z,15.00
2017-12-05T08:06:38.690Z,16.40
2017-12-05T08:09:06.934Z,21.53
2017-12-05T08:11:35.982Z,20.77
2017-12-05T08:14:04.995Z,17.20
2017-12-05T08:16:33.237Z,20.60
2017-12-05T08:19:01.510Z,19.20
2017-12-05T08:21:29.762Z,16.87
2017-12-05T08:23:58.334Z,18.80
2017-12-05T08:26:27.687Z,17.47
2017-12-05T08:28:55.941Z,14.27
2017-12-05T08:31:24.185Z,12.70
2017-12-05T08:33:52.453Z,17.00
2017-12-05T08:36:20.692Z,14.87
2017-12-05T08:38:48.930Z,12.30
2017-12-05T08:41:18.578Z,9.50
2017-12-05T08:43:46.834Z,15.57
2017-12-05T08:46:15.082Z,12.53
2017-12-05T08:48:45.357Z,12.97
2017-12-05T08:51:13.612Z,13.97
2017-12-05T08:53:41.859Z,12.97
2017-12-05T08:56:10.123Z,13.53
2017-12-05T08:58:38.371Z,12.50
2017-12-05T09:01:06.766Z,13.03
2017-12-05T09:03:35.034Z,9.77
2017-12-05T09:06:03.274Z,11.97
2017-12-05T09:08:31.513Z,13.50
2017-12-05T09:11:00.054Z,12.20
2017-12-05T09:13:28.330Z,17.57
2017-12-05T09:15:56.557Z,19.63
2017-12-05T09:18:25.601Z,18.53
2017-12-05T09:20:53.855Z,18.47
2017-12-05T09:23:22.086Z,19.10
2017-12-05T09:25:50.614Z,11.40
2017-12-05T09:28:18.860Z,12.70
2017-12-05T09:30:47.206Z,7.67
2017-12-05T09:33:15.783Z,12.97
2017-12-05T09:35:44.064Z,12.23
2017-12-05T09:38:12.306Z,7.80
2017-12-05T09:40:40.594Z,9.40
2017-12-05T09:43:08.833Z,8.07
2017-12-05T09:45:37.070Z,11.17
2017-12-05T09:48:05.333Z,10.90
2017-12-05T09:50:33.582Z,11.67
2017-12-05T09:53:01.822Z,10.70
2017-12-05T09:55:30.142Z,10.90
2017-12-05T09:57:58.394Z,11.10
2017-12-05T10:00:26.646Z,10.70
2017-12-05T10:02:54.915Z,9.67
2017-12-05T10:05:23.153Z,12.50
2017-12-05T10:07:51.406Z,11.67
2017-12-05T10:10:19.669Z,12.00
2017-12-05T10:12:47.930Z,13.10
2017-12-05T10:15:16.185Z,11.67
2017-12-05T10:17:44.502Z,9.40
2017-12-05T10:20:13.516Z,10.10
2017-12-05T10:22:41.754Z,10.53
2017-12-05T10:25:10.026Z,10.00
2017-12-05T10:27:38.569Z,9.87
2017-12-05T10:30:06.806Z,7.60
2017-12-05T10:32:35.134Z,10.10
2017-12-05T10:35:03.382Z,10.63
2017-12-05T10:37:31.671Z,6.77
2017-12-05T10:40:00.166Z,7.53
2017-12-05T10:42:28.402Z,9.63
2017-12-05T10:44:56.646Z,9.33
2017-12-05T10:47:24.908Z,8.70
2017-12-05T10:49:53.154Z,8.93
2017-12-05T10:52:21.389Z,8.47
2017-12-05T10:54:49.654Z,9.10
2017-12-05T10:57:17.889Z,8.40
2017-12-05T10:59:46.125Z,8.10
2017-12-05T11:02:14.446Z,6.93
2017-12-05T11:04:42.681Z,7.50
2017-12-05T11:07:11.686Z,7.20
2017-12-05T11:09:40.714Z,9.90
2017-12-05T11:12:08.953Z,7.93
2017-12-05T11:14:37.961Z,8.37
2017-12-05T11:17:06.234Z,8.77
2017-12-05T11:19:34.474Z,9.20
2017-12-05T11:22:02.739Z,10.00
2017-12-05T11:24:31.370Z,10.23
2017-12-05T11:26:59.613Z,8.30
2017-12-05T11:29:27.978Z,8.37
2017-12-05T11:31:56.238Z,7.20
2017-12-05T11:34:24.633Z,8.33
2017-12-05T11:36:52.854Z,8.87
2017-12-05T11:39:21.891Z,9.53
2017-12-05T11:41:50.137Z,8.30
2017-12-05T11:44:18.370Z,7.73
2017-12-05T11:46:46.769Z,9.27
2017-12-05T11:49:15.778Z,6.60
2017-12-05T11:51:44.778Z,8.33
2017-12-05T11:54:13.038Z,9.60
2017-12-05T11:56:42.054Z,9.07
2017-12-05T11:59:10.290Z,8.67
2017-12-05T12:01:38.554Z,9.27
2017-12-05T12:04:06.799Z,10.13
2017-12-05T12:06:35.062Z,8.03
2017-12-05T12:09:03.666Z,8.97
2017-12-05T12:11:31.948Z,9.03
2017-12-05T12:14:00.202Z,9.80
2017-12-05T12:16:28.469Z,9.00
2017-12-05T12:18:56.705Z,9.70
2017-12-05T12:21:24.950Z,10.37
2017-12-05T12:23:53.226Z,10.10
2017-12-05T12:26:21.478Z,9.50
2017-12-05T12:28:49.729Z,10.47
2017-12-05T12:31:19.358Z,9.20
2017-12-05T12:33:48.614Z,10.00
2017-12-05T12:36:16.879Z,9.70
2017-12-05T12:38:45.139Z,9.27
2017-12-05T12:41:13.378Z,9.90
2017-12-05T12:43:41.621Z,8.63
2017-12-05T12:46:09.895Z,9.20
2017-12-05T12:48:38.131Z,9.13
2017-12-05T12:51:06.374Z,9.80
2017-12-05T12:53:35.717Z,9.20
2017-12-05T12:56:04.874Z,9.57
2017-12-05T12:58:33.126Z,6.00
2017-12-05T13:01:01.385Z,7.20
2017-12-05T13:03:29.774Z,5.60
2017-12-05T13:05:58.155Z,7.30
2017-12-05T13:08:26.675Z,5.37
2017-12-05T13:10:54.946Z,5.03
2017-12-05T13:13:23.962Z,6.73
2017-12-05T13:15:52.376Z,5.43
2017-12-05T13:18:20.622Z,7.57
2017-12-05T13:20:48.881Z,5.37
2017-12-05T13:23:18.876Z,7.47
2017-12-05T13:25:51.034Z,5.90
2017-12-05T13:28:19.297Z,7.10
2017-12-05T13:30:47.545Z,6.43
2017-12-05T13:33:15.798Z,6.30
2017-12-05T13:35:44.151Z,4.90
2017-12-05T13:38:12.418Z,6.63
2017-12-05T13:40:41.812Z,7.50
2017-12-05T13:43:11.254Z,9.90
2017-12-05T13:45:40.522Z,9.17
2017-12-05T13:48:08.891Z,7.40
2017-12-05T13:50:37.147Z,8.37
2017-12-05T13:53:05.507Z,7.10
2017-12-05T13:55:33.762Z,8.83
2017-12-05T13:58:02.838Z,8.30
2017-12-05T14:00:31.087Z,10.10
2017-12-05T14:02:59.334Z,7.90
2017-12-05T14:05:27.947Z,8.73
2017-12-05T14:07:56.177Z,9.27
2017-12-05T14:10:24.472Z,8.67
2017-12-05T14:12:52.763Z,8.17
2017-12-05T14:15:21.738Z,7.97
2017-12-05T14:17:49.975Z,8.03
2017-12-05T14:20:18.842Z,8.33
2017-12-05T14:22:47.088Z,8.10
2017-12-05T14:25:15.510Z,8.17
2017-12-05T14:27:43.778Z,8.03
2017-12-05T14:30:12.023Z,8.63
2017-12-05T14:32:40.954Z,9.50
2017-12-05T14:35:09.236Z,8.93
2017-12-05T14:37:37.472Z,8.47
2017-12-05T14:40:05.779Z,8.80
2017-12-05T14:42:34.099Z,7.67
2017-12-05T14:45:02.342Z,8.73
2017-12-05T14:47:30.616Z,8.73
2017-12-05T14:49:58.878Z,8.10
2017-12-05T14:52:27.173Z,9.30
2017-12-05T14:54:55.433Z,8.77
2017-12-05T14:57:23.694Z,8.50
2017-12-05T14:59:51.953Z,10.37
2017-12-05T15:02:20.277Z,10.03
2017-12-05T15:04:48.729Z,9.60
2017-12-05T15:07:16.970Z,9.70
2017-12-05T15:09:45.210Z,10.53
2017-12-05T15:12:13.515Z,9.17
2017-12-05T15:14:44.191Z,8.07
2017-12-05T15:17:12.706Z,10.40
2017-12-05T15:19:40.974Z,9.37
2017-12-05T15:22:09.216Z,7.80
2017-12-05T15:24:37.464Z,9.10
2017-12-05T15:27:05.792Z,9.53
2017-12-05T15:29:34.029Z,9.97
2017-12-05T15:32:02.428Z,10.00
2017-12-05T15:34:31.153Z,9.07
2017-12-05T15:36:59.463Z,8.43
2017-12-05T15:39:27.693Z,9.37
2017-12-05T15:41:57.144Z,8.77
2017-12-05T15:44:26.152Z,9.53
2017-12-05T15:46:54.433Z,11.90
2017-12-05T15:49:22.748Z,10.37
2017-12-05T15:51:51.128Z,10.43
2017-12-05T15:54:19.505Z,11.40
2017-12-05T15:56:48.953Z,10.20
2017-12-05T15:59:17.981Z,11.60
2017-12-05T16:01:46.305Z,10.70
2017-12-05T16:04:14.715Z,13.80
2017-12-05T16:06:43.993Z,9.30
2017-12-05T16:09:12.407Z,13.57
2017-12-05T16:11:43.082Z,11.73
2017-12-05T16:14:11.339Z,12.20
2017-12-05T16:16:39.589Z,12.30
2017-12-05T16:19:08.034Z,10.93
2017-12-05T16:21:38.435Z,11.73
2017-12-05T16:24:06.662Z,12.00
2017-12-05T16:26:35.705Z,13.43
2017-12-05T16:29:03.947Z,12.80
2017-12-05T16:31:32.261Z,12.47
2017-12-05T16:34:00.661Z,12.07
2017-12-05T16:36:29.450Z,12.90
2017-12-05T16:38:57.694Z,12.87
2017-12-05T16:41:25.975Z,8.40
2017-12-05T16:43:54.230Z,13.73
2017-12-05T16:46:22.503Z,13.50
2017-12-05T16:48:52.035Z,12.53
2017-12-05T16:51:20.322Z,12.83
2017-12-05T16:53:48.708Z,12.30
2017-12-05T16:56:17.178Z,11.80
2017-12-05T16:58:47.619Z,12.70
2017-12-05T17:01:16.942Z,12.70
2017-12-05T17:03:47.167Z,13.80
2017-12-05T17:06:16.182Z,14.17
2017-12-05T17:08:44.454Z,14.50
2017-12-05T17:11:12.772Z,14.07
2017-12-05T17:13:41.018Z,13.00
2017-12-05T17:16:09.278Z,12.70
2017-12-05T17:18:37.958Z,12.23
2017-12-05T17:21:06.609Z,10.43
2017-12-05T17:23:38.818Z,16.00
2017-12-05T17:26:08.173Z,14.43
2017-12-05T17:28:36.657Z,15.10
2017-12-05T17:31:06.103Z,15.33
2017-12-05T17:33:35.259Z,15.30
2017-12-05T17:36:05.602Z,14.43
2017-12-05T17:38:34.006Z,14.03
2017-12-05T17:41:04.391Z,15.60
2017-12-05T17:43:32.635Z,11.63
2017-12-05T17:46:04.978Z,14.10
2017-12-05T17:48:34.262Z,17.10
2017-12-05T17:51:02.642Z,16.00
2017-12-05T17:53:31.035Z,13.33
2017-12-05T17:56:00.074Z,12.87
2017-12-05T17:58:28.350Z,17.07
2017-12-05T18:00:57.077Z,13.97
2017-12-05T18:03:25.450Z,11.53
2017-12-05T18:05:53.837Z,15.37
2017-12-05T18:08:22.233Z,12.47
2017-12-05T18:10:51.268Z,15.00
2017-12-05T18:13:19.505Z,11.27
2017-12-05T18:15:47.978Z,11.70
2017-12-05T18:18:17.006Z,14.10
2017-12-05T18:20:45.277Z,16.03
2017-12-05T18:23:13.790Z,17.30
2017-12-05T18:25:44.239Z,17.70
2017-12-05T18:28:12.493Z,15.63
2017-12-05T18:30:41.941Z,15.60
2017-12-05T18:33:10.963Z,11.77
2017-12-05T18:35:39.219Z,16.27
2017-12-05T18:38:07.518Z,12.87
2017-12-05T18:40:35.778Z,17.73
2017-12-05T18:43:04.801Z,13.67
2017-12-05T18:45:33.824Z,15.73
2017-12-05T18:48:02.069Z,16.90
2017-12-05T18:50:30.494Z,18.10
2017-12-05T18:52:58.764Z,16.47
2017-12-05T18:55:27.026Z,17.60
2017-12-05T18:57:55.289Z,17.37
2017-12-05T19:00:23.566Z,17.10
2017-12-05T19:02:51.842Z,15.73
2017-12-05T19:05:20.166Z,14.20
2017-12-05T19:07:48.490Z,14.83
2017-12-05T19:10:16.743Z,14.57
2017-12-05T19:12:45.002Z,18.10
2017-12-05T19:15:13.378Z,15.90
2017-12-05T19:17:42.398Z,13.97
2017-12-05T19:20:10.650Z,12.07
2017-12-05T19:22:39.138Z,16.20
2017-12-05T19:25:08.161Z,15.50
2017-12-05T19:27:36.490Z,16.90
2017-12-05T19:30:05.249Z,14.70
2017-12-05T19:32:33.508Z,15.53
2017-12-05T19:35:01.758Z,17.00
2017-12-05T19:37:32.186Z,15.67
2017-12-05T19:40:01.206Z,19.40
2017-12-05T19:42:29.455Z,18.40
2017-12-05T19:44:57.726Z,16.77
2017-12-05T19:47:25.965Z,17.70
2017-12-05T19:49:54.222Z,10.93
2017-12-05T19:52:22.562Z,14.80
2017-12-05T19:54:51.574Z,16.17
2017-12-05T19:57:19.823Z,18.47
2017-12-05T19:59:49.170Z,16.73
2017-12-05T20:02:17.423Z,18.37
2017-12-05T20:04:45.682Z,16.97
2017-12-05T20:07:14.720Z,16.03
2017-12-05T20:09:42.962Z,12.20
2017-12-05T20:12:11.978Z,13.63
2017-12-05T20:14:40.681Z,14.23
2017-12-05T20:17:08.930Z,14.50
2017-12-05T20:19:37.174Z,17.47
2017-12-05T20:22:05.801Z,18.23
2017-12-05T20:24:35.041Z,16.27
2017-12-05T20:27:03.290Z,17.80
2017-12-05T20:29:31.570Z,17.77
2017-12-05T20:31:59.826Z,17.00
2017-12-05T20:34:28.074Z,17.50
2017-12-05T20:36:57.178Z,16.53
2017-12-05T20:39:25.421Z,14.87
2017-12-05T20:41:53.666Z,18.07
2017-12-05T20:44:22.438Z,16.70
2017-12-05T20:46:50.690Z,14.70
2017-12-05T20:49:18.933Z,17.67
2017-12-05T20:51:47.202Z,15.67
2017-12-05T20:54:15.444Z,18.50
2017-12-05T20:56:43.690Z,17.57
2017-12-05T20:59:13.043Z,17.33
2017-12-05T21:01:41.294Z,16.20
2017-12-05T21:04:09.542Z,18.90
2017-12-05T21:06:37.816Z,17.30
2017-12-05T21:09:06.063Z,14.27
2017-12-05T21:11:34.306Z,16.33
2017-12-05T21:14:02.582Z,15.90
2017-12-05T21:16:31.007Z,17.27
2017-12-05T21:18:59.262Z,16.40
2017-12-05T21:21:27.702Z,18.10
2017-12-05T21:23:55.946Z,16.83
2017-12-05T21:26:24.190Z,12.93
2017-12-05T21:28:52.531Z,15.07
2017-12-05T21:31:20.765Z,16.80
2017-12-05T21:33:49.016Z,16.37
2017-12-05T21:36:17.313Z,16.50
2017-12-05T21:38:45.565Z,18.43
2017-12-05T21:41:13.810Z,17.80
2017-12-05T21:43:42.149Z,15.77
2017-12-05T21:46:10.934Z,15.90
2017-12-05T21:48:39.178Z,17.50
2017-12-05T21:51:07.460Z,17.27
2017-12-05T21:53:35.702Z,18.20
2017-12-05T21:56:03.955Z,19.27
2017-12-05T21:58:32.330Z,17.37
2017-12-05T22:01:00.639Z,17.77
2017-12-05T22:03:29.646Z,18.43
2017-12-05T22:05:58.178Z,17.80
2017-12-05T22:08:26.434Z,16.90
2017-12-05T22:10:54.683Z,17.60
2017-12-05T22:13:22.946Z,14.17
2017-12-05T22:15:51.198Z,17.20
2017-12-05T22:18:19.447Z,17.20
2017-12-05T22:20:47.713Z,17.60
2017-12-05T22:23:16.027Z,16.70
2017-12-05T22:25:44.230Z,17.40
2017-12-05T22:28:12.577Z,16.07
2017-12-05T22:30:40.825Z,18.60
2017-12-05T22:33:09.070Z,17.00
2017-12-05T22:35:37.333Z,17.97
2017-12-05T22:38:06.354Z,17.27
2017-12-05T22:40:34.598Z,18.40
2017-12-05T22:43:03.633Z,16.87
2017-12-05T22:45:31.885Z,16.30
2017-12-05T22:48:00.287Z,17.10
2017-12-05T22:50:28.874Z,17.27
2017-12-05T22:52:57.129Z,17.83
2017-12-05T22:55:25.590Z,16.73
2017-12-05T22:57:54.629Z,17.30
2017-12-05T23:00:22.879Z,16.53
2017-12-05T23:02:51.127Z,12.10
2017-12-05T23:05:19.477Z,17.53
2017-12-05T23:07:47.723Z,16.47
2017-12-05T23:10:15.970Z,16.70
2017-12-05T23:12:44.614Z,16.63
2017-12-05T23:15:12.877Z,17.50
2017-12-05T23:17:41.126Z,16.27
2017-12-05T23:20:09.394Z,15.40
2017-12-05T23:22:37.642Z,16.57
2017-12-05T23:25:05.895Z,15.97
2017-12-05T23:27:34.167Z,14.57
2017-12-05T23:30:02.414Z,11.83
2017-12-05T23:32:30.662Z,16.47
2017-12-05T23:35:00.038Z,15.33
2017-12-05T23:37:28.286Z,14.40
2017-12-05T23:39:56.538Z,16.50
2017-12-05T23:42:24.801Z,17.63
2017-12-05T23:44:54.981Z,16.87
2017-12-05T23:47:23.250Z,15.50
2017-12-05T23:49:51.633Z,16.70
2017-12-05T23:52:19.873Z,14.13
2017-12-05T23:54:48.122Z,15.77
2017-12-05T23:57:16.754Z,13.13
2017-12-05T23:59:45.078Z,15.00
